createdAt,value
2018-12-16T00:01:36.941Z,-0.24
2018-12-16T00:04:05.225Z,-0.29
2018-12-16T00:06:33.555Z,-0.28
2018-12-16T00:09:01.889Z,-0.30
2018-12-16T00:11:30.183Z,-0.21
2018-12-16T00:13:58.429Z,-0.23
2018-12-16T00:16:26.753Z,-0.23
2018-12-16T00:18:55.142Z,-0.25
2018-12-16T00:21:23.495Z,-0.29
2018-12-16T00:23:51.769Z,-0.33
2018-12-16T00:26:20.015Z,-0.34
2018-12-16T00:28:48.312Z,-0.34
2018-12-16T00:31:16.664Z,-0.28
2018-12-16T00:33:44.937Z,-0.36
2018-12-16T00:36:13.197Z,-0.37
2018-12-16T00:38:41.451Z,-0.44
2018-12-16T00:41:09.714Z,-0.45
2018-12-16T00:43:37.940Z,-0.43
2018-12-16T00:46:06.218Z,-0.40
2018-12-16T00:48:34.896Z,-0.39
2018-12-16T00:51:03.158Z,-0.46
2018-12-16T00:53:31.517Z,-0.56
2018-12-16T00:55:59.736Z,-0.50
2018-12-16T00:58:28.014Z,-0.52
2018-12-16T01:00:56.313Z,-0.64
2018-12-16T01:03:24.583Z,-0.62
2018-12-16T01:05:52.916Z,-0.67
2018-12-16T01:08:22.036Z,-0.66
2018-12-16T01:10:50.336Z,-0.71
2018-12-16T01:13:18.557Z,-0.72
2018-12-16T01:15:46.797Z,-0.71
2018-12-16T01:18:15.100Z,-0.70
2018-12-16T01:20:43.657Z,-0.73
2018-12-16T01:23:11.998Z,-0.67
2018-12-16T01:25:40.213Z,-0.71
2018-12-16T01:28:08.529Z,-0.72
2018-12-16T01:30:36.819Z,-0.75
2018-12-16T01:33:05.043Z,-0.71
2018-12-16T01:35:33.282Z,-0.61
2018-12-16T01:38:01.608Z,-0.60
2018-12-16T01:40:29.928Z,-0.70
2018-12-16T01:42:58.330Z,-0.72
2018-12-16T01:45:26.590Z,-0.60
2018-12-16T01:47:54.980Z,-0.63
2018-12-16T01:50:23.308Z,-0.66
2018-12-16T01:52:51.656Z,-0.70
2018-12-16T01:55:19.908Z,-0.67
2018-12-16T01:57:48.225Z,-0.72
2018-12-16T02:00:16.530Z,-0.67
2018-12-16T02:02:44.987Z,-0.65
2018-12-16T02:05:13.352Z,-0.65
2018-12-16T02:07:41.662Z,-0.68
2018-12-16T02:10:10.774Z,-0.67
2018-12-16T02:12:39.112Z,-0.65
2018-12-16T02:18:00.828Z,-0.54
2018-12-16T02:20:29.146Z,-0.53
2018-12-16T02:22:57.555Z,-0.51
2018-12-16T02:25:25.782Z,-0.48
2018-12-16T02:27:54.040Z,-0.42
2018-12-16T02:30:28.509Z,-0.50
2018-12-16T02:32:57.015Z,-0.51
2018-12-16T02:35:25.329Z,-0.44
2018-12-16T02:37:53.601Z,-0.53
2018-12-16T02:40:21.862Z,-0.50
2018-12-16T02:42:50.295Z,-0.47
2018-12-16T02:45:19.417Z,-0.47
2018-12-16T02:47:49.201Z,-0.46
2018-12-16T02:50:17.467Z,-0.33
2018-12-16T02:52:45.723Z,-0.34
2018-12-16T02:55:14.019Z,-0.41
2018-12-16T02:57:42.264Z,-0.47
2018-12-16T03:00:10.749Z,-0.50
2018-12-16T03:02:39.088Z,-0.54
2018-12-16T03:05:07.418Z,-0.50
2018-12-16T03:07:35.686Z,-0.50
2018-12-16T03:10:04.277Z,-0.55
2018-12-16T03:12:32.593Z,-0.50
2018-12-16T03:15:00.915Z,-0.52
2018-12-16T03:17:29.187Z,-0.53
2018-12-16T03:19:57.413Z,-0.60
2018-12-16T03:22:25.630Z,-0.66
2018-12-16T03:24:53.891Z,-0.56
2018-12-16T03:27:22.215Z,-0.55
2018-12-16T03:29:50.464Z,-0.60
2018-12-16T03:32:18.810Z,-0.58
2018-12-16T03:34:47.191Z,-0.59
2018-12-16T03:37:15.434Z,-0.48
2018-12-16T03:39:43.689Z,-0.56
2018-12-16T03:42:12.130Z,-0.54
2018-12-16T03:44:40.446Z,-0.53
2018-12-16T03:47:08.698Z,-0.43
2018-12-16T03:49:37.040Z,-0.40
2018-12-16T03:52:07.276Z,-0.48
2018-12-16T03:54:35.815Z,-0.39
2018-12-16T03:57:04.282Z,-0.39
2018-12-16T03:59:32.514Z,-0.32
2018-12-16T04:02:00.761Z,-0.29
2018-12-16T04:04:29.098Z,-0.29
2018-12-16T04:06:57.299Z,-0.30
2018-12-16T04:09:25.590Z,-0.27
2018-12-16T04:11:53.972Z,-0.22
2018-12-16T04:14:22.223Z,-0.23
2018-12-16T04:16:50.471Z,-0.24
2018-12-16T04:19:25.167Z,-0.21
2018-12-16T04:21:53.513Z,-0.18
2018-12-16T04:24:21.784Z,-0.05
2018-12-16T04:26:50.035Z,-0.06
2018-12-16T04:29:18.283Z,-0.13
2018-12-16T04:31:46.595Z,-0.13
2018-12-16T04:34:14.830Z,-0.09
2018-12-16T04:36:43.058Z,-0.03
2018-12-16T04:39:11.298Z,0.03
2018-12-16T04:41:39.508Z,-0.03
2018-12-16T04:44:07.736Z,-0.04
2018-12-16T04:46:35.981Z,0.02
2018-12-16T04:49:04.285Z,0.08
2018-12-16T04:51:32.521Z,0.05
2018-12-16T04:54:00.847Z,0.05
2018-12-16T04:56:29.164Z,0.09
2018-12-16T04:58:57.409Z,0.16
2018-12-16T05:01:25.630Z,0.09
2018-12-16T05:03:53.942Z,0.11
2018-12-16T05:06:22.153Z,0.07
2018-12-16T05:08:50.383Z,0.12
2018-12-16T05:11:18.617Z,0.13
2018-12-16T05:13:46.856Z,0.11
2018-12-16T05:16:15.111Z,0.17
2018-12-16T05:18:43.389Z,0.12
2018-12-16T05:21:11.642Z,0.15
2018-12-16T05:23:42.020Z,0.18
2018-12-16T05:26:10.156Z,0.14
2018-12-16T05:28:38.495Z,0.18
2018-12-16T05:31:06.711Z,0.18
2018-12-16T05:33:34.958Z,0.29
2018-12-16T05:36:03.176Z,0.26
2018-12-16T05:38:31.515Z,0.35
2018-12-16T05:40:59.732Z,0.22
2018-12-16T05:43:27.954Z,0.30
2018-12-16T05:45:56.396Z,0.30
2018-12-16T05:48:24.636Z,0.30
2018-12-16T05:50:52.844Z,0.28
2018-12-16T05:53:21.088Z,0.34
2018-12-16T05:58:16.650Z,0.29
2018-12-16T06:00:44.946Z,0.29
2018-12-16T06:03:13.165Z,0.34
2018-12-16T06:05:41.384Z,0.33
2018-12-16T06:08:09.616Z,0.36
2018-12-16T06:10:37.882Z,0.35
2018-12-16T06:13:06.121Z,0.36
2018-12-16T06:15:34.373Z,0.32
2018-12-16T06:18:02.665Z,0.32
2018-12-16T06:20:31.065Z,0.30
2018-12-16T06:22:59.294Z,0.34
2018-12-16T06:25:27.508Z,0.37
2018-12-16T06:27:55.748Z,0.41
2018-12-16T06:30:24.718Z,0.35
2018-12-16T06:32:53.004Z,0.34
2018-12-16T06:35:21.356Z,0.34
2018-12-16T06:37:49.629Z,0.38
2018-12-16T06:40:17.881Z,0.40
2018-12-16T06:42:46.125Z,0.34
2018-12-16T06:45:14.491Z,0.39
2018-12-16T06:47:42.799Z,0.29
2018-12-16T06:50:11.009Z,0.33
2018-12-16T06:52:39.445Z,0.40
2018-12-16T06:55:07.747Z,0.37
2018-12-16T06:57:35.995Z,0.31
2018-12-16T07:00:04.889Z,0.28
2018-12-16T07:02:33.161Z,0.34
2018-12-16T07:05:01.512Z,0.36
2018-12-16T07:07:29.774Z,0.32
2018-12-16T07:09:58.023Z,0.32
2018-12-16T07:12:26.340Z,0.29
2018-12-16T07:14:54.637Z,0.26
2018-12-16T07:17:22.877Z,0.30
2018-12-16T07:19:51.221Z,0.36
2018-12-16T07:22:19.491Z,0.33
2018-12-16T07:24:47.841Z,0.37
2018-12-16T07:27:16.222Z,0.36
2018-12-16T07:29:44.585Z,0.35
2018-12-16T07:32:12.924Z,0.35
2018-12-16T07:34:41.400Z,0.29
2018-12-16T07:37:09.757Z,0.31
2018-12-16T07:39:37.992Z,0.39
2018-12-16T07:42:06.428Z,0.28
2018-12-16T07:44:34.920Z,0.30
2018-12-16T07:47:03.386Z,0.33
2018-12-16T07:49:31.623Z,0.35
2018-12-16T07:51:59.826Z,0.47
2018-12-16T07:54:28.128Z,0.39
2018-12-16T07:56:56.390Z,0.36
2018-12-16T07:59:24.703Z,0.36
2018-12-16T08:01:53.048Z,0.37
2018-12-16T08:04:21.264Z,0.30
2018-12-16T08:06:49.509Z,0.35
2018-12-16T08:09:17.810Z,0.28
2018-12-16T08:11:46.164Z,0.27
2018-12-16T08:14:14.449Z,0.34
2018-12-16T08:16:42.673Z,0.31
2018-12-16T08:19:10.963Z,0.27
2018-12-16T08:21:39.549Z,0.32
2018-12-16T08:24:07.845Z,0.32
2018-12-16T08:26:36.117Z,0.33
2018-12-16T08:29:04.469Z,0.34
2018-12-16T08:31:32.817Z,0.30
2018-12-16T08:34:01.080Z,0.34
2018-12-16T08:36:29.335Z,0.35
2018-12-16T08:38:57.586Z,0.37
2018-12-16T08:41:25.841Z,0.45
2018-12-16T08:43:54.160Z,0.36
2018-12-16T08:46:22.448Z,0.39
2018-12-16T08:48:50.678Z,0.36
2018-12-16T08:51:18.894Z,0.48
2018-12-16T08:53:47.133Z,0.46
2018-12-16T08:56:15.518Z,0.41
2018-12-16T08:58:43.781Z,0.47
2018-12-16T09:01:12.014Z,0.57
2018-12-16T09:03:40.362Z,0.57
2018-12-16T09:09:02.422Z,0.56
2018-12-16T09:14:23.589Z,0.50
2018-12-16T09:16:51.872Z,0.58
2018-12-16T09:19:20.200Z,0.51
2018-12-16T09:21:48.566Z,0.52
2018-12-16T09:24:16.821Z,0.44
2018-12-16T09:26:45.137Z,0.47
2018-12-16T09:29:13.455Z,0.54
2018-12-16T09:31:41.762Z,0.51
2018-12-16T09:34:10.301Z,0.51
2018-12-16T09:36:38.876Z,0.49
2018-12-16T09:39:08.217Z,0.48
2018-12-16T09:41:36.593Z,0.45
2018-12-16T09:44:04.964Z,0.49
2018-12-16T09:46:33.392Z,0.57
2018-12-16T09:49:01.761Z,0.49
2018-12-16T09:51:30.097Z,0.49
2018-12-16T09:53:58.358Z,0.50
2018-12-16T09:56:26.653Z,0.54
2018-12-16T09:58:54.926Z,0.52
2018-12-16T10:01:23.194Z,0.46
2018-12-16T10:03:51.457Z,0.45
2018-12-16T10:06:19.742Z,0.49
2018-12-16T10:08:48.271Z,0.44
2018-12-16T10:11:16.577Z,0.42
2018-12-16T10:13:44.829Z,0.45
2018-12-16T10:16:13.088Z,0.39
2018-12-16T10:18:41.312Z,0.37
2018-12-16T10:21:09.685Z,0.47
2018-12-16T10:23:44.823Z,0.49
2018-12-16T10:26:13.111Z,0.48
2018-12-16T10:28:41.393Z,0.51
2018-12-16T10:31:09.652Z,0.47
2018-12-16T10:33:37.977Z,0.48
2018-12-16T10:36:06.447Z,0.51
2018-12-16T10:38:34.719Z,0.48
2018-12-16T10:41:03.044Z,0.46
2018-12-16T10:43:31.451Z,0.53
2018-12-16T10:45:59.873Z,0.46
2018-12-16T10:48:28.164Z,0.51
2018-12-16T10:50:56.447Z,0.46
2018-12-16T10:53:24.852Z,0.49
2018-12-16T10:55:53.216Z,0.55
2018-12-16T10:58:21.475Z,0.62
2018-12-16T11:00:55.213Z,0.63
2018-12-16T11:03:23.733Z,0.60
2018-12-16T11:05:52.022Z,0.64
2018-12-16T11:08:21.181Z,0.70
2018-12-16T11:10:49.436Z,0.63
2018-12-16T11:13:17.699Z,0.73
2018-12-16T11:15:46.034Z,0.78
2018-12-16T11:18:14.305Z,0.77
2018-12-16T11:20:42.560Z,0.62
2018-12-16T11:23:10.806Z,0.64
2018-12-16T11:25:44.119Z,0.64
2018-12-16T11:28:12.335Z,0.68
2018-12-16T11:30:40.622Z,0.67
2018-12-16T11:33:08.926Z,0.71
2018-12-16T11:35:37.712Z,0.79
2018-12-16T11:38:06.389Z,0.67
2018-12-16T11:40:35.168Z,0.68
2018-12-16T11:43:03.692Z,0.69
2018-12-16T11:45:32.386Z,0.71
2018-12-16T11:48:00.891Z,0.75
2018-12-16T11:50:29.206Z,0.73
2018-12-16T11:52:57.473Z,0.72
2018-12-16T11:58:19.035Z,0.81
2018-12-16T12:00:47.744Z,0.84
2018-12-16T12:03:16.186Z,0.81
2018-12-16T12:05:45.326Z,0.74
2018-12-16T12:08:14.853Z,0.90
2018-12-16T12:10:43.927Z,0.96
2018-12-16T12:13:13.167Z,0.94
2018-12-16T12:15:41.781Z,0.90
2018-12-16T12:18:10.191Z,1.02
2018-12-16T12:20:38.612Z,0.96
2018-12-16T12:23:06.945Z,0.93
2018-12-16T12:25:35.810Z,0.80
2018-12-16T12:28:05.223Z,0.88
2018-12-16T12:30:33.897Z,0.90
2018-12-16T12:33:02.316Z,0.96
2018-12-16T12:35:30.856Z,0.94
2018-12-16T12:37:59.381Z,0.97
2018-12-16T12:40:27.728Z,0.94
2018-12-16T12:42:56.150Z,1.01
2018-12-16T12:45:24.608Z,1.01
2018-12-16T12:47:53.322Z,1.02
2018-12-16T12:50:21.684Z,0.96
2018-12-16T12:52:50.041Z,0.85
2018-12-16T12:55:18.327Z,0.95
2018-12-16T12:57:46.629Z,0.90
2018-12-16T13:00:15.664Z,0.86
2018-12-16T13:02:44.274Z,1.03
2018-12-16T13:05:13.108Z,0.99
2018-12-16T13:07:41.391Z,0.88
2018-12-16T13:10:11.745Z,0.86
2018-12-16T13:12:40.602Z,0.93
2018-12-16T13:15:09.096Z,0.90
2018-12-16T13:17:37.356Z,0.88
2018-12-16T13:20:06.228Z,0.89
2018-12-16T13:22:34.671Z,0.83
2018-12-16T13:25:14.471Z,0.82
2018-12-16T13:27:42.718Z,0.99
2018-12-16T13:30:11.128Z,0.97
2018-12-16T13:32:39.373Z,0.87
2018-12-16T13:35:07.713Z,0.86
2018-12-16T13:37:35.967Z,0.85
2018-12-16T13:40:04.510Z,0.79
2018-12-16T13:42:32.825Z,0.86
2018-12-16T13:45:01.078Z,0.93
2018-12-16T13:47:29.315Z,0.92
2018-12-16T13:49:57.619Z,0.84
2018-12-16T13:52:25.923Z,0.91
2018-12-16T13:54:54.213Z,0.98
2018-12-16T13:57:22.512Z,1.04
2018-12-16T13:59:50.750Z,0.93
2018-12-16T14:02:18.991Z,0.92
2018-12-16T14:04:47.417Z,0.89
2018-12-16T14:07:15.774Z,0.87
2018-12-16T14:09:44.069Z,0.83
2018-12-16T14:12:12.588Z,0.81
2018-12-16T14:14:41.111Z,0.84
2018-12-16T14:17:09.483Z,0.80
2018-12-16T14:19:37.921Z,0.85
2018-12-16T14:22:06.320Z,0.97
2018-12-16T14:24:35.290Z,0.90
2018-12-16T14:27:04.638Z,0.92
2018-12-16T14:29:33.350Z,0.92
2018-12-16T14:32:02.125Z,0.86
2018-12-16T14:38:49.575Z,0.83
2018-12-16T14:41:17.916Z,0.72
2018-12-16T14:43:46.253Z,0.66
2018-12-16T14:46:14.545Z,0.63
2018-12-16T14:48:42.846Z,0.56
2018-12-16T14:51:11.212Z,0.54
2018-12-16T14:53:39.680Z,0.50
2018-12-16T14:56:07.981Z,0.48
2018-12-16T14:58:36.457Z,0.42
2018-12-16T15:01:04.800Z,0.45
2018-12-16T15:03:33.968Z,0.46
2018-12-16T15:06:02.404Z,0.42
2018-12-16T15:08:30.756Z,0.53
2018-12-16T15:11:06.239Z,0.47
2018-12-16T15:13:34.712Z,0.45
2018-12-16T15:16:03.015Z,0.44
2018-12-16T15:18:31.429Z,0.45
2018-12-16T15:20:59.687Z,0.43
2018-12-16T15:23:27.974Z,0.43
2018-12-16T15:26:02.029Z,0.49
2018-12-16T15:28:26.585Z,0.52
2018-12-16T15:30:55.903Z,0.48
2018-12-16T15:33:24.969Z,0.48
2018-12-16T15:35:53.471Z,0.51
2018-12-16T15:38:21.867Z,0.59
2018-12-16T15:40:56.371Z,0.66
2018-12-16T15:43:25.020Z,0.62
2018-12-16T15:45:53.504Z,0.64
2018-12-16T15:48:21.834Z,0.69
2018-12-16T15:50:50.157Z,0.62
2018-12-16T15:53:18.635Z,0.64
2018-12-16T15:55:46.945Z,0.62
2018-12-16T15:58:15.195Z,0.69
2018-12-16T16:00:43.513Z,0.75
2018-12-16T16:03:11.905Z,0.76
2018-12-16T16:05:40.404Z,0.76
2018-12-16T16:08:08.675Z,0.74
2018-12-16T16:10:37.165Z,0.75
2018-12-16T16:13:05.475Z,0.73
2018-12-16T16:15:33.784Z,0.73
2018-12-16T16:18:02.144Z,0.70
2018-12-16T16:20:30.511Z,0.67
2018-12-16T16:22:58.826Z,0.70
2018-12-16T16:25:27.098Z,0.74
2018-12-16T16:27:55.368Z,0.70
2018-12-16T16:30:23.664Z,0.74
2018-12-16T16:32:52.000Z,0.68
2018-12-16T16:35:20.258Z,0.77
2018-12-16T16:37:49.067Z,0.80
2018-12-16T16:40:17.804Z,0.73
2018-12-16T16:42:46.196Z,0.71
2018-12-16T16:45:21.244Z,0.65
2018-12-16T16:47:49.593Z,0.65
2018-12-16T16:50:17.975Z,0.63
2018-12-16T16:52:46.222Z,0.64
2018-12-16T16:55:14.640Z,0.62
2018-12-16T16:57:43.105Z,0.64
2018-12-16T17:00:11.580Z,0.65
2018-12-16T17:02:39.871Z,0.65
2018-12-16T17:05:08.195Z,0.68
2018-12-16T17:07:36.495Z,0.77
2018-12-16T17:10:05.916Z,0.77
2018-12-16T17:12:34.322Z,0.75
2018-12-16T17:15:02.983Z,0.81
2018-12-16T17:20:24.565Z,0.92
2018-12-16T17:25:48.383Z,0.78
2018-12-16T17:28:15.910Z,0.76
2018-12-16T17:30:44.231Z,0.68
2018-12-16T17:33:12.514Z,0.81
2018-12-16T17:35:40.847Z,0.67
2018-12-16T17:38:09.174Z,0.70
2018-12-16T17:40:37.492Z,0.59
2018-12-16T17:43:05.964Z,0.55
2018-12-16T17:45:34.235Z,0.69
2018-12-16T17:50:55.625Z,0.60
2018-12-16T17:56:16.830Z,0.47
2018-12-16T17:58:45.127Z,0.41
2018-12-16T18:01:13.424Z,0.35
2018-12-16T18:03:42.131Z,0.40
2018-12-16T18:06:10.538Z,0.47
2018-12-16T18:08:38.828Z,0.50
2018-12-16T18:11:07.143Z,0.47
2018-12-16T18:13:35.447Z,0.48
2018-12-16T18:16:03.729Z,0.41
2018-12-16T18:18:32.082Z,0.37
2018-12-16T18:21:00.336Z,0.39
2018-12-16T18:23:29.827Z,0.39
2018-12-16T18:25:58.455Z,0.35
2018-12-16T18:28:26.926Z,0.26
2018-12-16T18:30:55.324Z,0.27
2018-12-16T18:33:27.273Z,0.21
2018-12-16T18:35:55.592Z,0.19
2018-12-16T18:38:23.947Z,0.21
2018-12-16T18:40:52.227Z,0.15
2018-12-16T18:43:20.581Z,0.18
2018-12-16T18:45:48.856Z,0.18
2018-12-16T18:48:17.151Z,0.17
2018-12-16T18:50:46.218Z,0.15
2018-12-16T18:53:14.448Z,0.21
2018-12-16T18:55:42.735Z,0.37
2018-12-16T18:58:11.015Z,0.32
2018-12-16T19:00:39.434Z,0.27
2018-12-16T19:03:07.780Z,0.28
2018-12-16T19:05:36.263Z,0.31
2018-12-16T19:08:04.753Z,0.28
2018-12-16T19:10:34.397Z,0.27
2018-12-16T19:15:35.963Z,0.22
2018-12-16T19:18:04.824Z,0.24
2018-12-16T19:20:33.491Z,0.26
2018-12-16T19:23:01.760Z,0.33
2018-12-16T19:25:30.127Z,0.42
2018-12-16T19:27:58.487Z,0.38
2018-12-16T19:30:26.881Z,0.28
2018-12-16T19:32:55.162Z,0.30
2018-12-16T19:35:23.537Z,0.37
2018-12-16T19:37:51.898Z,0.39
2018-12-16T19:40:20.239Z,0.33
2018-12-16T19:42:49.170Z,0.33
2018-12-16T19:45:17.598Z,0.36
2018-12-16T19:47:49.567Z,0.34
2018-12-16T19:50:16.392Z,0.34
2018-12-16T19:52:44.659Z,0.34
2018-12-16T19:58:05.700Z,0.48
2018-12-16T20:00:34.065Z,0.42
2018-12-16T20:03:02.561Z,0.55
2018-12-16T20:05:32.959Z,0.51
2018-12-16T20:08:01.324Z,0.37
2018-12-16T20:10:29.570Z,0.35
2018-12-16T20:12:57.896Z,0.33
2018-12-16T20:15:26.254Z,0.30
2018-12-16T20:17:54.946Z,0.28
2018-12-16T20:20:23.243Z,0.29
2018-12-16T20:22:51.934Z,0.33
2018-12-16T20:25:20.313Z,0.24
2018-12-16T20:27:48.635Z,0.19
2018-12-16T20:30:17.070Z,0.20
2018-12-16T20:32:45.368Z,0.22
2018-12-16T20:35:14.020Z,0.23
2018-12-16T20:37:43.055Z,0.20
2018-12-16T20:40:11.504Z,0.27
2018-12-16T20:42:39.933Z,0.27
2018-12-16T20:45:08.379Z,0.37
2018-12-16T20:47:36.911Z,0.26
2018-12-16T20:50:06.800Z,0.34
2018-12-16T20:52:35.407Z,0.32
2018-12-16T20:55:05.769Z,0.32
2018-12-16T20:57:34.365Z,0.29
2018-12-16T21:00:02.841Z,0.38
2018-12-16T21:02:34.515Z,0.36
2018-12-16T21:05:03.115Z,0.30
2018-12-16T21:07:32.092Z,0.29
2018-12-16T21:10:01.052Z,0.37
2018-12-16T21:12:35.107Z,0.34
2018-12-16T21:15:08.997Z,0.33
2018-12-16T21:17:43.012Z,0.37
2018-12-16T21:20:11.765Z,0.34
2018-12-16T21:22:40.208Z,0.26
2018-12-16T21:25:08.679Z,0.32
2018-12-16T21:27:37.450Z,0.24
2018-12-16T21:30:06.719Z,0.19
2018-12-16T21:32:35.126Z,0.18
2018-12-16T21:35:03.728Z,0.23
2018-12-16T21:37:33.217Z,0.28
2018-12-16T21:40:01.730Z,0.22
2018-12-16T21:42:30.394Z,0.20
2018-12-16T21:44:58.796Z,0.28
2018-12-16T21:47:27.105Z,0.25
2018-12-16T21:49:55.418Z,0.26
2018-12-16T21:52:23.707Z,0.15
2018-12-16T21:54:52.184Z,0.15
2018-12-16T21:57:20.495Z,0.20
2018-12-16T21:59:49.403Z,0.26
2018-12-16T22:02:17.879Z,0.17
2018-12-16T22:04:46.315Z,0.30
2018-12-16T22:07:14.760Z,0.30
2018-12-16T22:09:43.190Z,0.30
2018-12-16T22:12:11.601Z,0.37
2018-12-16T22:14:40.000Z,0.25
2018-12-16T22:17:08.422Z,0.47
2018-12-16T22:19:36.790Z,0.36
2018-12-16T22:22:05.709Z,0.37
2018-12-16T22:24:34.119Z,0.26
2018-12-16T22:27:02.515Z,0.37
2018-12-16T22:29:30.812Z,0.43
2018-12-16T22:31:59.616Z,0.42
2018-12-16T22:34:28.810Z,0.34
2018-12-16T22:36:57.155Z,0.36
2018-12-16T22:39:25.623Z,0.34
2018-12-16T22:41:54.794Z,0.32
2018-12-16T22:44:23.075Z,0.33
2018-12-16T22:46:52.372Z,0.29
2018-12-16T22:49:20.797Z,0.34
2018-12-16T22:51:49.184Z,0.42
2018-12-16T22:54:17.576Z,0.41
2018-12-16T22:56:45.995Z,0.33
2018-12-16T22:59:14.314Z,0.41
2018-12-16T23:01:42.756Z,0.35
2018-12-16T23:04:11.440Z,0.28
2018-12-16T23:06:39.769Z,0.27
2018-12-16T23:09:08.380Z,0.26
2018-12-16T23:11:36.696Z,0.32
2018-12-16T23:14:05.322Z,0.40
2018-12-16T23:16:33.619Z,0.41
2018-12-16T23:19:02.023Z,0.37
2018-12-16T23:21:30.253Z,0.42
2018-12-16T23:23:58.517Z,0.38
2018-12-16T23:26:26.913Z,0.37
2018-12-16T23:28:55.197Z,0.37
2018-12-16T23:31:23.556Z,0.38
2018-12-16T23:33:51.840Z,0.37
2018-12-16T23:36:20.085Z,0.37
2018-12-16T23:38:48.393Z,0.42
2018-12-16T23:41:16.692Z,0.29
2018-12-16T23:43:44.985Z,0.27
2018-12-16T23:46:13.273Z,0.34
2018-12-16T23:48:41.497Z,0.26
2018-12-16T23:51:09.813Z,0.32
2018-12-16T23:53:38.097Z,0.32
2018-12-16T23:56:06.510Z,0.24
2018-12-16T23:58:34.832Z,0.23
